sensor_id;sensor_type;location;lat;lon;timestamp;P1;durP1;ratioP1;P2;durP2;ratioP2
53269;SDS011;39159;45.634;9.420;2022-08-01T00:01:46;3.95;;;2.08;;
53269;SDS011;39159;45.634;9.420;2022-08-01T00:04:12;3.15;;;1.98;;
53269;SDS011;39159;45.634;9.420;2022-08-01T00:06:38;4.95;;;2.20;;
53269;SDS011;39159;45.634;9.420;2022-08-01T00:09:04;4.72;;;1.95;;
53269;SDS011;39159;45.634;9.420;2022-08-01T00:11:29;2.50;;;1.70;;
53269;SDS011;39159;45.634;9.420;2022-08-01T00:13:55;6.00;;;2.10;;
53269;SDS011;39159;45.634;9.420;2022-08-01T00:16:20;2.08;;;1.75;;
53269;SDS011;39159;45.634;9.420;2022-08-01T00:18:48;3.58;;;1.65;;
53269;SDS011;39159;45.634;9.420;2022-08-01T00:21:14;2.63;;;1.85;;
53269;SDS011;39159;45.634;9.420;2022-08-01T00:23:40;2.85;;;1.83;;
53269;SDS011;39159;45.634;9.420;2022-08-01T00:26:06;2.60;;;1.90;;
53269;SDS011;39159;45.634;9.420;2022-08-01T00:28:31;3.17;;;1.60;;
53269;SDS011;39159;45.634;9.420;2022-08-01T00:30:57;2.00;;;1.75;;
53269;SDS011;39159;45.634;9.420;2022-08-01T00:33:22;2.03;;;1.70;;
53269;SDS011;39159;45.634;9.420;2022-08-01T00:35:48;2.70;;;1.90;;
53269;SDS011;39159;45.634;9.420;2022-08-01T00:38:13;4.88;;;1.70;;
53269;SDS011;39159;45.634;9.420;2022-08-01T00:40:39;3.50;;;1.92;;
53269;SDS011;39159;45.634;9.420;2022-08-01T00:43:04;3.67;;;2.17;;
53269;SDS011;39159;45.634;9.420;2022-08-01T00:45:30;6.82;;;1.90;;
53269;SDS011;39159;45.634;9.420;2022-08-01T00:47:55;2.53;;;1.92;;
53269;SDS011;39159;45.634;9.420;2022-08-01T00:50:21;3.95;;;1.90;;
53269;SDS011;39159;45.634;9.420;2022-08-01T00:52:46;2.60;;;1.80;;
53269;SDS011;39159;45.634;9.420;2022-08-01T00:55:12;3.05;;;1.90;;
53269;SDS011;39159;45.634;9.420;2022-08-01T00:57:39;2.58;;;2.10;;
53269;SDS011;39159;45.634;9.420;2022-08-01T01:00:05;2.78;;;1.98;;
53269;SDS011;39159;45.634;9.420;2022-08-01T01:02:32;4.10;;;1.92;;
53269;SDS011;39159;45.634;9.420;2022-08-01T01:04:58;2.45;;;1.90;;
53269;SDS011;39159;45.634;9.420;2022-08-01T01:10:31;4.25;;;1.90;;
53269;SDS011;39159;45.634;9.420;2022-08-01T01:13:06;2.63;;;1.55;;
53269;SDS011;39159;45.634;9.420;2022-08-01T01:15:47;2.13;;;1.88;;
53269;SDS011;39159;45.634;9.420;2022-08-01T01:18:22;2.95;;;1.73;;
53269;SDS011;39159;45.634;9.420;2022-08-01T01:21:27;2.28;;;1.77;;
53269;SDS011;39159;45.634;9.420;2022-08-01T01:24:03;1.90;;;1.50;;
53269;SDS011;39159;45.634;9.420;2022-08-01T01:26:59;2.00;;;1.80;;
53269;SDS011;39159;45.634;9.420;2022-08-01T01:29:38;3.28;;;1.63;;
53269;SDS011;39159;45.634;9.420;2022-08-01T01:32:18;2.20;;;1.60;;
53269;SDS011;39159;45.634;9.420;2022-08-01T01:34:48;3.15;;;1.63;;
53269;SDS011;39159;45.634;9.420;2022-08-01T01:37:19;3.40;;;1.40;;
53269;SDS011;39159;45.634;9.420;2022-08-01T01:39:48;3.35;;;1.48;;
53269;SDS011;39159;45.634;9.420;2022-08-01T01:42:18;5.70;;;1.60;;
53269;SDS011;39159;45.634;9.420;2022-08-01T01:44:45;3.08;;;1.52;;
53269;SDS011;39159;45.634;9.420;2022-08-01T01:47:14;3.67;;;1.80;;
53269;SDS011;39159;45.634;9.420;2022-08-01T01:49:41;2.33;;;1.70;;
53269;SDS011;39159;45.634;9.420;2022-08-01T01:52:10;1.67;;;1.30;;
53269;SDS011;39159;45.634;9.420;2022-08-01T01:54:39;2.72;;;1.42;;
53269;SDS011;39159;45.634;9.420;2022-08-01T01:57:07;1.75;;;1.55;;
53269;SDS011;39159;45.634;9.420;2022-08-01T01:59:37;3.15;;;1.58;;
53269;SDS011;39159;45.634;9.420;2022-08-01T02:02:04;1.70;;;1.40;;
53269;SDS011;39159;45.634;9.420;2022-08-01T02:04:30;2.70;;;1.40;;
53269;SDS011;39159;45.634;9.420;2022-08-01T02:06:57;3.35;;;1.40;;
53269;SDS011;39159;45.634;9.420;2022-08-01T02:09:24;1.50;;;1.35;;
53269;SDS011;39159;45.634;9.420;2022-08-01T02:11:53;4.82;;;1.35;;
53269;SDS011;39159;45.634;9.420;2022-08-01T02:14:20;1.75;;;1.23;;
53269;SDS011;39159;45.634;9.420;2022-08-01T02:16:49;2.92;;;1.50;;
53269;SDS011;39159;45.634;9.420;2022-08-01T02:19:18;2.70;;;1.20;;
53269;SDS011;39159;45.634;9.420;2022-08-01T02:27:17;2.65;;;1.40;;
53269;SDS011;39159;45.634;9.420;2022-08-01T02:29:58;3.67;;;1.55;;
53269;SDS011;39159;45.634;9.420;2022-08-01T02:32:31;1.58;;;1.30;;
53269;SDS011;39159;45.634;9.420;2022-08-01T02:35:01;5.60;;;1.30;;
53269;SDS011;39159;45.634;9.420;2022-08-01T02:37:29;1.35;;;1.20;;
53269;SDS011;39159;45.634;9.420;2022-08-01T02:39:58;2.08;;;1.55;;
53269;SDS011;39159;45.634;9.420;2022-08-01T02:42:26;1.73;;;1.23;;
53269;SDS011;39159;45.634;9.420;2022-08-01T02:44:53;2.20;;;1.40;;
53269;SDS011;39159;45.634;9.420;2022-08-01T02:47:20;2.33;;;1.60;;
53269;SDS011;39159;45.634;9.420;2022-08-01T02:49:47;2.45;;;1.80;;
53269;SDS011;39159;45.634;9.420;2022-08-01T02:52:16;1.92;;;1.52;;
53269;SDS011;39159;45.634;9.420;2022-08-01T02:54:45;3.45;;;1.80;;
53269;SDS011;39159;45.634;9.420;2022-08-01T02:57:13;2.45;;;1.83;;
53269;SDS011;39159;45.634;9.420;2022-08-01T02:59:41;2.55;;;1.80;;
53269;SDS011;39159;45.634;9.420;2022-08-01T03:02:08;3.30;;;2.08;;
53269;SDS011;39159;45.634;9.420;2022-08-01T03:04:36;5.43;;;1.70;;
53269;SDS011;39159;45.634;9.420;2022-08-01T03:07:04;4.28;;;1.70;;
53269;SDS011;39159;45.634;9.420;2022-08-01T03:09:33;4.85;;;1.98;;
53269;SDS011;39159;45.634;9.420;2022-08-01T03:12:02;2.80;;;1.73;;
53269;SDS011;39159;45.634;9.420;2022-08-01T03:14:30;2.97;;;2.00;;
53269;SDS011;39159;45.634;9.420;2022-08-01T03:16:59;2.17;;;1.73;;
53269;SDS011;39159;45.634;9.420;2022-08-01T03:19:25;2.28;;;1.80;;
53269;SDS011;39159;45.634;9.420;2022-08-01T03:21:54;5.40;;;1.90;;
53269;SDS011;39159;45.634;9.420;2022-08-01T03:24:23;10.55;;;2.25;;
53269;SDS011;39159;45.634;9.420;2022-08-01T03:26:50;2.25;;;1.60;;
53269;SDS011;39159;45.634;9.420;2022-08-01T03:29:20;4.32;;;1.65;;
53269;SDS011;39159;45.634;9.420;2022-08-01T03:31:49;4.72;;;1.88;;
53269;SDS011;39159;45.634;9.420;2022-08-01T03:34:16;2.28;;;1.58;;
53269;SDS011;39159;45.634;9.420;2022-08-01T03:36:45;2.03;;;1.55;;
53269;SDS011;39159;45.634;9.420;2022-08-01T03:39:15;2.35;;;1.80;;
53269;SDS011;39159;45.634;9.420;2022-08-01T03:41:43;3.35;;;1.75;;
53269;SDS011;39159;45.634;9.420;2022-08-01T03:44:16;4.78;;;1.83;;
53269;SDS011;39159;45.634;9.420;2022-08-01T03:46:46;3.90;;;1.65;;
53269;SDS011;39159;45.634;9.420;2022-08-01T03:49:23;3.65;;;2.00;;
53269;SDS011;39159;45.634;9.420;2022-08-01T03:52:09;1.80;;;1.40;;
53269;SDS011;39159;45.634;9.420;2022-08-01T03:54:37;4.28;;;1.77;;
53269;SDS011;39159;45.634;9.420;2022-08-01T03:57:06;4.03;;;1.80;;
53269;SDS011;39159;45.634;9.420;2022-08-01T03:59:34;5.00;;;2.17;;
53269;SDS011;39159;45.634;9.420;2022-08-01T04:02:01;4.00;;;2.00;;
53269;SDS011;39159;45.634;9.420;2022-08-01T04:04:28;8.13;;;2.45;;
53269;SDS011;39159;45.634;9.420;2022-08-01T04:06:54;2.10;;;1.90;;
53269;SDS011;39159;45.634;9.420;2022-08-01T04:09:20;3.72;;;1.77;;
53269;SDS011;39159;45.634;9.420;2022-08-01T04:11:46;5.05;;;1.80;;
53269;SDS011;39159;45.634;9.420;2022-08-01T04:14:12;2.83;;;1.73;;
53269;SDS011;39159;45.634;9.420;2022-08-01T04:16:37;4.60;;;2.05;;
53269;SDS011;39159;45.634;9.420;2022-08-01T04:19:03;28.35;;;2.88;;
53269;SDS011;39159;45.634;9.420;2022-08-01T04:21:32;2.60;;;2.03;;
53269;SDS011;39159;45.634;9.420;2022-08-01T04:24:01;3.88;;;1.75;;
53269;SDS011;39159;45.634;9.420;2022-08-01T04:26:32;4.75;;;1.73;;
53269;SDS011;39159;45.634;9.420;2022-08-01T04:29:02;1.65;;;1.45;;
53269;SDS011;39159;45.634;9.420;2022-08-01T04:31:30;3.35;;;1.67;;
53269;SDS011;39159;45.634;9.420;2022-08-01T04:33:57;3.65;;;1.80;;
53269;SDS011;39159;45.634;9.420;2022-08-01T04:36:26;3.75;;;1.60;;
53269;SDS011;39159;45.634;9.420;2022-08-01T04:38:54;2.50;;;1.60;;
53269;SDS011;39159;45.634;9.420;2022-08-01T04:41:25;2.15;;;1.38;;
53269;SDS011;39159;45.634;9.420;2022-08-01T04:43:50;3.25;;;1.70;;
53269;SDS011;39159;45.634;9.420;2022-08-01T04:46:17;2.78;;;1.25;;
53269;SDS011;39159;45.634;9.420;2022-08-01T04:48:43;3.95;;;1.40;;
53269;SDS011;39159;45.634;9.420;2022-08-01T04:51:13;7.13;;;1.67;;
53269;SDS011;39159;45.634;9.420;2022-08-01T04:53:40;1.38;;;1.23;;
53269;SDS011;39159;45.634;9.420;2022-08-01T04:56:06;2.75;;;1.40;;
53269;SDS011;39159;45.634;9.420;2022-08-01T04:58:31;6.10;;;1.70;;
53269;SDS011;39159;45.634;9.420;2022-08-01T05:00:57;3.30;;;1.40;;
53269;SDS011;39159;45.634;9.420;2022-08-01T05:03:22;1.65;;;1.10;;
53269;SDS011;39159;45.634;9.420;2022-08-01T05:05:48;2.33;;;1.30;;
53269;SDS011;39159;45.634;9.420;2022-08-01T05:08:14;1.38;;;1.27;;
53269;SDS011;39159;45.634;9.420;2022-08-01T05:10:39;6.68;;;1.42;;
53269;SDS011;39159;45.634;9.420;2022-08-01T05:13:05;3.10;;;1.40;;
53269;SDS011;39159;45.634;9.420;2022-08-01T05:15:31;2.03;;;1.40;;
53269;SDS011;39159;45.634;9.420;2022-08-01T05:17:56;3.10;;;1.60;;
53269;SDS011;39159;45.634;9.420;2022-08-01T05:20:22;3.70;;;1.38;;
53269;SDS011;39159;45.634;9.420;2022-08-01T05:22:48;2.15;;;1.40;;
53269;SDS011;39159;45.634;9.420;2022-08-01T05:25:13;2.38;;;1.30;;
53269;SDS011;39159;45.634;9.420;2022-08-01T05:27:39;2.33;;;1.30;;
53269;SDS011;39159;45.634;9.420;2022-08-01T05:30:08;3.15;;;1.25;;
53269;SDS011;39159;45.634;9.420;2022-08-01T05:32:35;4.15;;;1.60;;
53269;SDS011;39159;45.634;9.420;2022-08-01T05:35:01;5.05;;;1.55;;
53269;SDS011;39159;45.634;9.420;2022-08-01T05:37:26;2.72;;;1.20;;
53269;SDS011;39159;45.634;9.420;2022-08-01T05:39:51;2.08;;;1.30;;
53269;SDS011;39159;45.634;9.420;2022-08-01T05:42:17;1.65;;;1.25;;
53269;SDS011;39159;45.634;9.420;2022-08-01T05:44:42;4.50;;;1.27;;
53269;SDS011;39159;45.634;9.420;2022-08-01T05:47:08;1.30;;;1.13;;
53269;SDS011;39159;45.634;9.420;2022-08-01T05:49:33;7.60;;;1.55;;
53269;SDS011;39159;45.634;9.420;2022-08-01T05:51:59;4.00;;;1.30;;
53269;SDS011;39159;45.634;9.420;2022-08-01T05:54:26;2.58;;;1.20;;
53269;SDS011;39159;45.634;9.420;2022-08-01T05:56:51;1.80;;;1.10;;
53269;SDS011;39159;45.634;9.420;2022-08-01T05:59:16;1.70;;;1.20;;
53269;SDS011;39159;45.634;9.420;2022-08-01T06:01:42;1.45;;;1.13;;
53269;SDS011;39159;45.634;9.420;2022-08-01T06:04:07;1.42;;;1.10;;
53269;SDS011;39159;45.634;9.420;2022-08-01T06:06:33;2.38;;;1.30;;
53269;SDS011;39159;45.634;9.420;2022-08-01T06:08:58;2.30;;;1.30;;
53269;SDS011;39159;45.634;9.420;2022-08-01T06:11:24;3.90;;;1.00;;
53269;SDS011;39159;45.634;9.420;2022-08-01T06:13:50;5.63;;;1.30;;
53269;SDS011;39159;45.634;9.420;2022-08-01T06:16:16;1.58;;;1.27;;
53269;SDS011;39159;45.634;9.420;2022-08-01T06:18:41;5.57;;;1.17;;
53269;SDS011;39159;45.634;9.420;2022-08-01T06:21:07;4.35;;;1.48;;
53269;SDS011;39159;45.634;9.420;2022-08-01T06:23:33;3.50;;;1.23;;
53269;SDS011;39159;45.634;9.420;2022-08-01T06:25:58;2.78;;;1.05;;
53269;SDS011;39159;45.634;9.420;2022-08-01T06:28:24;2.47;;;1.17;;
53269;SDS011;39159;45.634;9.420;2022-08-01T06:30:49;2.95;;;1.20;;
53269;SDS011;39159;45.634;9.420;2022-08-01T06:33:15;3.15;;;1.30;;
53269;SDS011;39159;45.634;9.420;2022-08-01T06:35:41;1.38;;;1.08;;
53269;SDS011;39159;45.634;9.420;2022-08-01T06:38:06;3.17;;;1.30;;
53269;SDS011;39159;45.634;9.420;2022-08-01T06:40:32;3.60;;;1.10;;
53269;SDS011;39159;45.634;9.420;2022-08-01T06:42:57;1.58;;;1.20;;
53269;SDS011;39159;45.634;9.420;2022-08-01T06:45:23;1.98;;;1.13;;
53269;SDS011;39159;45.634;9.420;2022-08-01T06:47:50;1.88;;;1.25;;
53269;SDS011;39159;45.634;9.420;2022-08-01T06:50:16;1.65;;;1.15;;
53269;SDS011;39159;45.634;9.420;2022-08-01T06:52:41;1.92;;;1.13;;
53269;SDS011;39159;45.634;9.420;2022-08-01T06:55:07;1.85;;;1.20;;
53269;SDS011;39159;45.634;9.420;2022-08-01T06:57:33;8.40;;;1.40;;
53269;SDS011;39159;45.634;9.420;2022-08-01T07:00:05;3.92;;;1.30;;
53269;SDS011;39159;45.634;9.420;2022-08-01T07:02:36;16.20;;;2.38;;
53269;SDS011;39159;45.634;9.420;2022-08-01T07:05:02;1.50;;;1.20;;
53269;SDS011;39159;45.634;9.420;2022-08-01T07:07:29;2.45;;;1.30;;
53269;SDS011;39159;45.634;9.420;2022-08-01T07:09:55;2.58;;;1.33;;
53269;SDS011;39159;45.634;9.420;2022-08-01T07:12:20;3.28;;;1.38;;
53269;SDS011;39159;45.634;9.420;2022-08-01T07:14:46;3.67;;;1.70;;
53269;SDS011;39159;45.634;9.420;2022-08-01T07:17:11;4.28;;;1.67;;
53269;SDS011;39159;45.634;9.420;2022-08-01T07:19:37;2.45;;;1.48;;
53269;SDS011;39159;45.634;9.420;2022-08-01T07:22:02;2.45;;;1.40;;
53269;SDS011;39159;45.634;9.420;2022-08-01T07:24:28;2.55;;;1.40;;
53269;SDS011;39159;45.634;9.420;2022-08-01T07:26:54;3.70;;;1.27;;
53269;SDS011;39159;45.634;9.420;2022-08-01T07:29:26;1.92;;;1.45;;
53269;SDS011;39159;45.634;9.420;2022-08-01T07:31:55;3.15;;;1.40;;
53269;SDS011;39159;45.634;9.420;2022-08-01T07:34:22;1.75;;;1.60;;
53269;SDS011;39159;45.634;9.420;2022-08-01T07:36:49;1.83;;;1.40;;
53269;SDS011;39159;45.634;9.420;2022-08-01T07:39:15;1.77;;;1.33;;
53269;SDS011;39159;45.634;9.420;2022-08-01T07:41:41;3.38;;;1.48;;
53269;SDS011;39159;45.634;9.420;2022-08-01T07:44:06;2.67;;;1.63;;
53269;SDS011;39159;45.634;9.420;2022-08-01T07:46:31;7.82;;;1.60;;
53269;SDS011;39159;45.634;9.420;2022-08-01T07:48:57;1.90;;;1.63;;
53269;SDS011;39159;45.634;9.420;2022-08-01T07:51:22;2.33;;;1.80;;
53269;SDS011;39159;45.634;9.420;2022-08-01T07:53:49;5.45;;;1.70;;
53269;SDS011;39159;45.634;9.420;2022-08-01T07:56:14;2.85;;;1.40;;
53269;SDS011;39159;45.634;9.420;2022-08-01T07:58:40;3.67;;;1.50;;
53269;SDS011;39159;45.634;9.420;2022-08-01T08:01:05;4.38;;;1.55;;
53269;SDS011;39159;45.634;9.420;2022-08-01T08:03:31;4.60;;;1.73;;
53269;SDS011;39159;45.634;9.420;2022-08-01T08:05:56;3.17;;;1.52;;
53269;SDS011;39159;45.634;9.420;2022-08-01T08:08:22;2.40;;;1.70;;
53269;SDS011;39159;45.634;9.420;2022-08-01T08:10:48;4.68;;;2.00;;
53269;SDS011;39159;45.634;9.420;2022-08-01T08:13:13;2.65;;;1.80;;
53269;SDS011;39159;45.634;9.420;2022-08-01T08:15:39;2.92;;;1.55;;
53269;SDS011;39159;45.634;9.420;2022-08-01T08:18:04;3.42;;;1.60;;
53269;SDS011;39159;45.634;9.420;2022-08-01T08:20:30;4.15;;;1.70;;
53269;SDS011;39159;45.634;9.420;2022-08-01T08:22:55;4.03;;;1.75;;
53269;SDS011;39159;45.634;9.420;2022-08-01T08:25:23;4.38;;;1.77;;
53269;SDS011;39159;45.634;9.420;2022-08-01T08:27:50;3.75;;;1.50;;
53269;SDS011;39159;45.634;9.420;2022-08-01T08:30:15;4.63;;;1.75;;
53269;SDS011;39159;45.634;9.420;2022-08-01T08:32:41;3.83;;;1.63;;
53269;SDS011;39159;45.634;9.420;2022-08-01T08:35:07;3.22;;;1.30;;
53269;SDS011;39159;45.634;9.420;2022-08-01T08:37:34;2.65;;;1.52;;
53269;SDS011;39159;45.634;9.420;2022-08-01T08:40:01;3.97;;;1.75;;
53269;SDS011;39159;45.634;9.420;2022-08-01T08:42:28;4.05;;;1.40;;
53269;SDS011;39159;45.634;9.420;2022-08-01T08:44:54;4.95;;;1.73;;
53269;SDS011;39159;45.634;9.420;2022-08-01T08:47:20;2.65;;;1.52;;
53269;SDS011;39159;45.634;9.420;2022-08-01T08:49:47;3.47;;;1.60;;
53269;SDS011;39159;45.634;9.420;2022-08-01T08:52:14;2.13;;;1.48;;
53269;SDS011;39159;45.634;9.420;2022-08-01T08:54:41;4.80;;;1.80;;
53269;SDS011;39159;45.634;9.420;2022-08-01T08:57:07;4.85;;;1.50;;
53269;SDS011;39159;45.634;9.420;2022-08-01T08:59:35;7.18;;;1.67;;
53269;SDS011;39159;45.634;9.420;2022-08-01T09:02:02;6.57;;;1.92;;
53269;SDS011;39159;45.634;9.420;2022-08-01T09:04:29;3.22;;;1.88;;
53269;SDS011;39159;45.634;9.420;2022-08-01T09:06:55;5.18;;;1.90;;
53269;SDS011;39159;45.634;9.420;2022-08-01T09:09:21;2.85;;;1.67;;
53269;SDS011;39159;45.634;9.420;2022-08-01T09:11:47;3.25;;;1.80;;
53269;SDS011;39159;45.634;9.420;2022-08-01T09:14:16;2.20;;;1.60;;
53269;SDS011;39159;45.634;9.420;2022-08-01T09:16:59;5.07;;;2.00;;
53269;SDS011;39159;45.634;9.420;2022-08-01T09:19:25;2.50;;;1.90;;
53269;SDS011;39159;45.634;9.420;2022-08-01T09:24:24;5.93;;;2.33;;
53269;SDS011;39159;45.634;9.420;2022-08-01T09:26:51;5.90;;;2.10;;
53269;SDS011;39159;45.634;9.420;2022-08-01T09:29:19;4.38;;;1.90;;
53269;SDS011;39159;45.634;9.420;2022-08-01T09:31:49;5.35;;;1.85;;
53269;SDS011;39159;45.634;9.420;2022-08-01T09:34:16;2.60;;;1.73;;
53269;SDS011;39159;45.634;9.420;2022-08-01T09:36:50;4.60;;;2.15;;
53269;SDS011;39159;45.634;9.420;2022-08-01T09:39:16;2.47;;;2.05;;
53269;SDS011;39159;45.634;9.420;2022-08-01T09:41:47;4.68;;;2.28;;
53269;SDS011;39159;45.634;9.420;2022-08-01T09:44:14;8.00;;;2.22;;
53269;SDS011;39159;45.634;9.420;2022-08-01T09:46:49;3.10;;;2.30;;
53269;SDS011;39159;45.634;9.420;2022-08-01T09:49:26;3.13;;;1.98;;
53269;SDS011;39159;45.634;9.420;2022-08-01T09:51:56;5.53;;;1.90;;
53269;SDS011;39159;45.634;9.420;2022-08-01T09:54:30;3.83;;;2.42;;
53269;SDS011;39159;45.634;9.420;2022-08-01T09:57:11;5.50;;;2.30;;
53269;SDS011;39159;45.634;9.420;2022-08-01T09:59:45;5.15;;;1.88;;
53269;SDS011;39159;45.634;9.420;2022-08-01T10:02:12;3.85;;;1.98;;
53269;SDS011;39159;45.634;9.420;2022-08-01T10:04:47;3.92;;;1.90;;
53269;SDS011;39159;45.634;9.420;2022-08-01T10:07:14;5.88;;;2.13;;
53269;SDS011;39159;45.634;9.420;2022-08-01T10:09:41;3.95;;;2.22;;
53269;SDS011;39159;45.634;9.420;2022-08-01T10:12:07;2.83;;;1.83;;
53269;SDS011;39159;45.634;9.420;2022-08-01T10:14:34;2.72;;;1.67;;
53269;SDS011;39159;45.634;9.420;2022-08-01T10:17:01;5.15;;;2.25;;
53269;SDS011;39159;45.634;9.420;2022-08-01T10:19:27;5.57;;;1.77;;
53269;SDS011;39159;45.634;9.420;2022-08-01T10:21:55;2.88;;;2.00;;
53269;SDS011;39159;45.634;9.420;2022-08-01T10:24:22;7.53;;;2.15;;
53269;SDS011;39159;45.634;9.420;2022-08-01T10:26:51;5.70;;;1.95;;
53269;SDS011;39159;45.634;9.420;2022-08-01T10:31:46;16.05;;;2.88;;
53269;SDS011;39159;45.634;9.420;2022-08-01T10:34:12;5.30;;;2.13;;
53269;SDS011;39159;45.634;9.420;2022-08-01T10:36:41;4.75;;;2.03;;
53269;SDS011;39159;45.634;9.420;2022-08-01T10:39:10;2.00;;;1.80;;
53269;SDS011;39159;45.634;9.420;2022-08-01T10:41:36;4.47;;;2.10;;
53269;SDS011;39159;45.634;9.420;2022-08-01T10:44:02;7.97;;;2.00;;
53269;SDS011;39159;45.634;9.420;2022-08-01T10:46:29;6.20;;;2.20;;
53269;SDS011;39159;45.634;9.420;2022-08-01T10:49:31;4.35;;;1.88;;
53269;SDS011;39159;45.634;9.420;2022-08-01T10:51:51;2.38;;;1.73;;
53269;SDS011;39159;45.634;9.420;2022-08-01T10:54:16;3.00;;;1.60;;
53269;SDS011;39159;45.634;9.420;2022-08-01T10:56:43;2.42;;;1.75;;
53269;SDS011;39159;45.634;9.420;2022-08-01T10:59:09;4.30;;;1.90;;
53269;SDS011;39159;45.634;9.420;2022-08-01T11:01:34;2.97;;;1.90;;
53269;SDS011;39159;45.634;9.420;2022-08-01T11:06:27;5.20;;;1.70;;
53269;SDS011;39159;45.634;9.420;2022-08-01T11:14:35;3.42;;;1.73;;
53269;SDS011;39159;45.634;9.420;2022-08-01T11:17:35;3.63;;;1.63;;
53269;SDS011;39159;45.634;9.420;2022-08-01T11:25:27;3.17;;;1.65;;
53269;SDS011;39159;45.634;9.420;2022-08-01T11:49:25;3.80;;;1.63;;
53269;SDS011;39159;45.634;9.420;2022-08-01T11:54:41;6.13;;;2.05;;
53269;SDS011;39159;45.634;9.420;2022-08-01T11:57:19;5.03;;;2.08;;
53269;SDS011;39159;45.634;9.420;2022-08-01T11:59:50;3.88;;;1.83;;
53269;SDS011;39159;45.634;9.420;2022-08-01T12:02:19;5.30;;;1.88;;
53269;SDS011;39159;45.634;9.420;2022-08-01T12:07:22;3.42;;;1.60;;
53269;SDS011;39159;45.634;9.420;2022-08-01T12:09:56;1.48;;;1.30;;
53269;SDS011;39159;45.634;9.420;2022-08-01T12:12:35;3.13;;;1.50;;
53269;SDS011;39159;45.634;9.420;2022-08-01T12:15:07;5.25;;;1.65;;
53269;SDS011;39159;45.634;9.420;2022-08-01T12:17:35;3.95;;;1.67;;
53269;SDS011;39159;45.634;9.420;2022-08-01T12:20:03;1.98;;;1.30;;
53269;SDS011;39159;45.634;9.420;2022-08-01T12:22:31;1.38;;;1.15;;
53269;SDS011;39159;45.634;9.420;2022-08-01T12:25:04;1.35;;;1.23;;
53269;SDS011;39159;45.634;9.420;2022-08-01T12:27:31;1.77;;;1.50;;
53269;SDS011;39159;45.634;9.420;2022-08-01T12:29:57;3.03;;;1.17;;
53269;SDS011;39159;45.634;9.420;2022-08-01T12:32:27;3.17;;;1.30;;
53269;SDS011;39159;45.634;9.420;2022-08-01T12:34:56;2.47;;;1.20;;
53269;SDS011;39159;45.634;9.420;2022-08-01T12:37:26;4.68;;;1.38;;
53269;SDS011;39159;45.634;9.420;2022-08-01T12:39:51;2.75;;;1.30;;
53269;SDS011;39159;45.634;9.420;2022-08-01T12:42:18;1.23;;;1.13;;
53269;SDS011;39159;45.634;9.420;2022-08-01T12:44:44;2.25;;;1.20;;
53269;SDS011;39159;45.634;9.420;2022-08-01T12:47:12;1.83;;;1.13;;
53269;SDS011;39159;45.634;9.420;2022-08-01T12:49:40;2.15;;;1.10;;
53269;SDS011;39159;45.634;9.420;2022-08-01T12:52:07;2.08;;;1.25;;
53269;SDS011;39159;45.634;9.420;2022-08-01T12:57:37;2.90;;;1.60;;
53269;SDS011;39159;45.634;9.420;2022-08-01T13:00:11;1.63;;;1.20;;
53269;SDS011;39159;45.634;9.420;2022-08-01T13:02:41;3.47;;;1.55;;
53269;SDS011;39159;45.634;9.420;2022-08-01T13:05:07;2.33;;;1.60;;
53269;SDS011;39159;45.634;9.420;2022-08-01T13:07:35;2.50;;;1.40;;
53269;SDS011;39159;45.634;9.420;2022-08-01T13:10:00;4.00;;;1.80;;
53269;SDS011;39159;45.634;9.420;2022-08-01T13:12:26;1.45;;;1.10;;
53269;SDS011;39159;45.634;9.420;2022-08-01T13:14:51;1.55;;;1.10;;
53269;SDS011;39159;45.634;9.420;2022-08-01T13:17:32;2.05;;;1.20;;
53269;SDS011;39159;45.634;9.420;2022-08-01T13:20:00;3.53;;;1.30;;
53269;SDS011;39159;45.634;9.420;2022-08-01T13:22:36;3.50;;;1.20;;
53269;SDS011;39159;45.634;9.420;2022-08-01T13:25:09;2.05;;;1.30;;
53269;SDS011;39159;45.634;9.420;2022-08-01T13:27:35;1.25;;;0.93;;
53269;SDS011;39159;45.634;9.420;2022-08-01T13:32:57;1.77;;;1.20;;
53269;SDS011;39159;45.634;9.420;2022-08-01T13:35:23;2.15;;;1.30;;
53269;SDS011;39159;45.634;9.420;2022-08-01T13:37:49;2.67;;;1.30;;
53269;SDS011;39159;45.634;9.420;2022-08-01T13:40:22;1.55;;;1.10;;
53269;SDS011;39159;45.634;9.420;2022-08-01T13:42:49;3.25;;;1.38;;
53269;SDS011;39159;45.634;9.420;2022-08-01T13:45:15;4.00;;;1.30;;
53269;SDS011;39159;45.634;9.420;2022-08-01T13:47:42;2.67;;;1.30;;
53269;SDS011;39159;45.634;9.420;2022-08-01T13:50:08;1.88;;;1.08;;
53269;SDS011;39159;45.634;9.420;2022-08-01T13:52:34;1.65;;;1.20;;
53269;SDS011;39159;45.634;9.420;2022-08-01T13:54:59;3.17;;;1.20;;
53269;SDS011;39159;45.634;9.420;2022-08-01T13:57:26;4.57;;;1.13;;
53269;SDS011;39159;45.634;9.420;2022-08-01T13:59:52;1.52;;;1.10;;
53269;SDS011;39159;45.634;9.420;2022-08-01T14:02:17;1.23;;;1.13;;
53269;SDS011;39159;45.634;9.420;2022-08-01T14:04:43;2.78;;;1.08;;
53269;SDS011;39159;45.634;9.420;2022-08-01T14:07:09;2.40;;;1.17;;
53269;SDS011;39159;45.634;9.420;2022-08-01T14:09:35;1.40;;;1.00;;
53269;SDS011;39159;45.634;9.420;2022-08-01T14:12:01;1.67;;;1.10;;
53269;SDS011;39159;45.634;9.420;2022-08-01T14:14:27;1.55;;;1.30;;
53269;SDS011;39159;45.634;9.420;2022-08-01T14:16:53;1.85;;;1.40;;
53269;SDS011;39159;45.634;9.420;2022-08-01T14:19:18;4.45;;;1.40;;
53269;SDS011;39159;45.634;9.420;2022-08-01T14:21:44;1.38;;;1.15;;
53269;SDS011;39159;45.634;9.420;2022-08-01T14:24:09;2.67;;;1.30;;
53269;SDS011;39159;45.634;9.420;2022-08-01T14:26:35;1.85;;;1.40;;
53269;SDS011;39159;45.634;9.420;2022-08-01T14:29:00;2.53;;;1.20;;
53269;SDS011;39159;45.634;9.420;2022-08-01T14:31:26;1.67;;;1.23;;
53269;SDS011;39159;45.634;9.420;2022-08-01T14:33:51;2.35;;;1.33;;
53269;SDS011;39159;45.634;9.420;2022-08-01T14:36:17;1.60;;;1.38;;
53269;SDS011;39159;45.634;9.420;2022-08-01T14:38:42;3.90;;;1.33;;
53269;SDS011;39159;45.634;9.420;2022-08-01T14:41:08;1.52;;;1.33;;
53269;SDS011;39159;45.634;9.420;2022-08-01T14:43:33;2.33;;;1.38;;
53269;SDS011;39159;45.634;9.420;2022-08-01T14:45:59;3.08;;;1.40;;
53269;SDS011;39159;45.634;9.420;2022-08-01T14:48:25;1.70;;;1.48;;
53269;SDS011;39159;45.634;9.420;2022-08-01T14:50:51;3.17;;;1.30;;
53269;SDS011;39159;45.634;9.420;2022-08-01T14:53:16;4.60;;;1.30;;
53269;SDS011;39159;45.634;9.420;2022-08-01T14:55:43;2.45;;;1.48;;
53269;SDS011;39159;45.634;9.420;2022-08-01T14:58:08;2.97;;;1.38;;
53269;SDS011;39159;45.634;9.420;2022-08-01T15:00:34;2.05;;;1.35;;
53269;SDS011;39159;45.634;9.420;2022-08-01T15:02:59;4.10;;;1.50;;
53269;SDS011;39159;45.634;9.420;2022-08-01T15:05:25;1.77;;;1.17;;
53269;SDS011;39159;45.634;9.420;2022-08-01T15:07:50;1.65;;;1.30;;
53269;SDS011;39159;45.634;9.420;2022-08-01T15:10:16;2.35;;;1.35;;
53269;SDS011;39159;45.634;9.420;2022-08-01T15:12:41;2.67;;;1.45;;
53269;SDS011;39159;45.634;9.420;2022-08-01T15:15:08;2.85;;;1.20;;
53269;SDS011;39159;45.634;9.420;2022-08-01T15:17:34;6.05;;;1.30;;
53269;SDS011;39159;45.634;9.420;2022-08-01T15:20:00;2.53;;;1.40;;
53269;SDS011;39159;45.634;9.420;2022-08-01T15:22:28;4.63;;;1.45;;
53269;SDS011;39159;45.634;9.420;2022-08-01T15:24:55;2.88;;;1.60;;
53269;SDS011;39159;45.634;9.420;2022-08-01T15:27:22;1.95;;;1.00;;
53269;SDS011;39159;45.634;9.420;2022-08-01T15:29:48;2.67;;;1.20;;
53269;SDS011;39159;45.634;9.420;2022-08-01T15:32:14;5.03;;;1.33;;
53269;SDS011;39159;45.634;9.420;2022-08-01T15:34:40;1.50;;;1.20;;
53269;SDS011;39159;45.634;9.420;2022-08-01T15:37:06;2.08;;;1.20;;
53269;SDS011;39159;45.634;9.420;2022-08-01T15:39:32;2.75;;;1.10;;
53269;SDS011;39159;45.634;9.420;2022-08-01T15:41:59;2.42;;;1.23;;
53269;SDS011;39159;45.634;9.420;2022-08-01T15:44:29;1.52;;;1.20;;
53269;SDS011;39159;45.634;9.420;2022-08-01T15:46:55;1.70;;;1.20;;
53269;SDS011;39159;45.634;9.420;2022-08-01T15:49:20;1.00;;;0.93;;
53269;SDS011;39159;45.634;9.420;2022-08-01T15:51:47;4.07;;;1.30;;